sensor_id;sensor_type;location;lat;lon;timestamp;temperature;humidity
64599;SHT31;51008;51.504;11.548;2023-01-26T00:03:05;-1.90;99.99
64599;SHT31;51008;51.504;11.548;2023-01-26T00:08:07;-1.94;99.99
64599;SHT31;51008;51.504;11.548;2023-01-26T00:13:09;-1.99;99.99
64599;SHT31;51008;51.504;11.548;2023-01-26T00:18:10;-1.98;99.99
64599;SHT31;51008;51.504;11.548;2023-01-26T00:23:11;-2.01;99.99
64599;SHT31;51008;51.504;11.548;2023-01-26T00:28:12;-1.97;99.99
64599;SHT31;51008;51.504;11.548;2023-01-26T00:33:13;-1.94;99.99
64599;SHT31;51008;51.504;11.548;2023-01-26T00:38:15;-1.88;99.99
64599;SHT31;51008;51.504;11.548;2023-01-26T00:43:16;-1.81;99.99
64599;SHT31;51008;51.504;11.548;2023-01-26T00:48:18;-1.85;99.99
64599;SHT31;51008;51.504;11.548;2023-01-26T00:53:19;-1.87;99.99
64599;SHT31;51008;51.504;11.548;2023-01-26T00:58:20;-1.88;99.99
64599;SHT31;51008;51.504;11.548;2023-01-26T01:03:21;-1.87;99.99
64599;SHT31;51008;51.504;11.548;2023-01-26T01:08:21;-1.87;99.99
64599;SHT31;51008;51.504;11.548;2023-01-26T01:13:22;-1.84;99.99
64599;SHT31;51008;51.504;11.548;2023-01-26T01:18:24;-1.80;99.99
64599;SHT31;51008;51.504;11.548;2023-01-26T01:23:27;-1.78;99.99
64599;SHT31;51008;51.504;11.548;2023-01-26T01:28:29;-1.85;99.99
64599;SHT31;51008;51.504;11.548;2023-01-26T01:33:30;-1.91;99.99
64599;SHT31;51008;51.504;11.548;2023-01-26T01:38:32;-1.88;99.99
64599;SHT31;51008;51.504;11.548;2023-01-26T01:43:34;-1.94;99.99
64599;SHT31;51008;51.504;11.548;2023-01-26T01:48:57;-1.91;99.99
64599;SHT31;51008;51.504;11.548;2023-01-26T01:54:03;-1.90;99.99
64599;SHT31;51008;51.504;11.548;2023-01-26T01:59:06;-1.88;99.99
64599;SHT31;51008;51.504;11.548;2023-01-26T02:04:08;-1.82;99.99
64599;SHT31;51008;51.504;11.548;2023-01-26T02:09:15;-1.87;99.99
64599;SHT31;51008;51.504;11.548;2023-01-26T02:14:16;-1.88;99.99
64599;SHT31;51008;51.504;11.548;2023-01-26T02:19:24;-1.94;99.99
64599;SHT31;51008;51.504;11.548;2023-01-26T02:24:33;-1.91;99.99
64599;SHT31;51008;51.504;11.548;2023-01-26T02:29:35;-1.88;99.99
64599;SHT31;51008;51.504;11.548;2023-01-26T02:34:36;-1.87;99.99
64599;SHT31;51008;51.504;11.548;2023-01-26T02:39:43;-1.85;99.99
64599;SHT31;51008;51.504;11.548;2023-01-26T02:44:47;-1.84;99.97
64599;SHT31;51008;51.504;11.548;2023-01-26T02:49:48;-1.81;99.88
64599;SHT31;51008;51.504;11.548;2023-01-26T02:54:52;-1.82;99.99
64599;SHT31;51008;51.504;11.548;2023-01-26T02:59:53;-1.90;99.99
64599;SHT31;51008;51.504;11.548;2023-01-26T03:04:54;-1.95;99.99
64599;SHT31;51008;51.504;11.548;2023-01-26T03:09:55;-1.94;99.99
64599;SHT31;51008;51.504;11.548;2023-01-26T03:14:56;-1.91;99.99
64599;SHT31;51008;51.504;11.548;2023-01-26T03:19:57;-1.97;99.99
64599;SHT31;51008;51.504;11.548;2023-01-26T03:24:59;-1.98;99.99
64599;SHT31;51008;51.504;11.548;2023-01-26T03:30:00;-2.03;99.99
64599;SHT31;51008;51.504;11.548;2023-01-26T03:35:01;-2.10;99.99
64599;SHT31;51008;51.504;11.548;2023-01-26T03:40:05;-2.12;99.99
64599;SHT31;51008;51.504;11.548;2023-01-26T03:45:08;-2.19;99.99
64599;SHT31;51008;51.504;11.548;2023-01-26T03:50:11;-2.23;99.99
64599;SHT31;51008;51.504;11.548;2023-01-26T03:55:12;-2.26;99.99
64599;SHT31;51008;51.504;11.548;2023-01-26T04:00:13;-2.22;99.99
64599;SHT31;51008;51.504;11.548;2023-01-26T04:05:14;-2.19;99.99
64599;SHT31;51008;51.504;11.548;2023-01-26T04:10:20;-2.21;99.99
64599;SHT31;51008;51.504;11.548;2023-01-26T04:15:21;-2.22;99.99
64599;SHT31;51008;51.504;11.548;2023-01-26T04:20:23;-2.22;99.99
64599;SHT31;51008;51.504;11.548;2023-01-26T04:25:24;-2.19;99.99
64599;SHT31;51008;51.504;11.548;2023-01-26T04:30:26;-2.16;99.99
64599;SHT31;51008;51.504;11.548;2023-01-26T04:35:29;-2.09;99.99
64599;SHT31;51008;51.504;11.548;2023-01-26T04:40:30;-2.18;99.99
64599;SHT31;51008;51.504;11.548;2023-01-26T04:45:31;-2.18;99.99
64599;SHT31;51008;51.504;11.548;2023-01-26T04:50:33;-2.25;99.99
64599;SHT31;51008;51.504;11.548;2023-01-26T04:55:34;-2.30;99.99
64599;SHT31;51008;51.504;11.548;2023-01-26T05:00:35;-2.29;99.99
64599;SHT31;51008;51.504;11.548;2023-01-26T05:05:38;-2.22;99.88
64599;SHT31;51008;51.504;11.548;2023-01-26T05:10:39;-2.22;99.99
64599;SHT31;51008;51.504;11.548;2023-01-26T05:15:56;-2.22;99.99
64599;SHT31;51008;51.504;11.548;2023-01-26T05:21:21;-2.22;99.91
64599;SHT31;51008;51.504;11.548;2023-01-26T05:26:24;-2.21;99.99
64599;SHT31;51008;51.504;11.548;2023-01-26T05:31:51;-2.21;99.76
64599;SHT31;51008;51.504;11.548;2023-01-26T05:36:52;-2.12;99.69
64599;SHT31;51008;51.504;11.548;2023-01-26T05:41:53;-2.10;99.63
64599;SHT31;51008;51.504;11.548;2023-01-26T05:47:06;-2.06;99.67
64599;SHT31;51008;51.504;11.548;2023-01-26T05:52:09;-2.02;99.67
64599;SHT31;51008;51.504;11.548;2023-01-26T05:57:11;-1.95;99.44
64599;SHT31;51008;51.504;11.548;2023-01-26T06:02:17;-1.91;99.39
64599;SHT31;51008;51.504;11.548;2023-01-26T06:07:19;-1.92;99.44
64599;SHT31;51008;51.504;11.548;2023-01-26T06:12:42;-1.87;99.55
64599;SHT31;51008;51.504;11.548;2023-01-26T06:18:11;-1.78;99.45
64599;SHT31;51008;51.504;11.548;2023-01-26T06:23:13;-1.80;98.99
64599;SHT31;51008;51.504;11.548;2023-01-26T06:28:15;-1.74;98.59
64599;SHT31;51008;51.504;11.548;2023-01-26T06:33:16;-1.75;98.77
64599;SHT31;51008;51.504;11.548;2023-01-26T06:38:17;-1.80;98.42
64599;SHT31;51008;51.504;11.548;2023-01-26T06:43:18;-1.78;98.45
64599;SHT31;51008;51.504;11.548;2023-01-26T06:48:19;-1.85;98.73
64599;SHT31;51008;51.504;11.548;2023-01-26T06:53:37;-1.87;99.26
64599;SHT31;51008;51.504;11.548;2023-01-26T06:59:11;-1.85;99.22
64599;SHT31;51008;51.504;11.548;2023-01-26T07:04:28;-1.87;99.64
64599;SHT31;51008;51.504;11.548;2023-01-26T07:09:29;-1.98;99.99
64599;SHT31;51008;51.504;11.548;2023-01-26T07:14:31;-2.01;99.97
64599;SHT31;51008;51.504;11.548;2023-01-26T07:19:32;-1.99;99.92
64599;SHT31;51008;51.504;11.548;2023-01-26T07:24:33;-1.90;99.99
64599;SHT31;51008;51.504;11.548;2023-01-26T07:29:34;-1.88;99.77
64599;SHT31;51008;51.504;11.548;2023-01-26T07:34:35;-1.97;99.32
64599;SHT31;51008;51.504;11.548;2023-01-26T07:39:35;-1.94;99.54
64599;SHT31;51008;51.504;11.548;2023-01-26T07:44:37;-1.95;99.52
64599;SHT31;51008;51.504;11.548;2023-01-26T07:49:38;-1.91;99.53
64599;SHT31;51008;51.504;11.548;2023-01-26T07:54:39;-1.84;99.63
64599;SHT31;51008;51.504;11.548;2023-01-26T07:59:40;-1.81;99.26
64599;SHT31;51008;51.504;11.548;2023-01-26T08:04:40;-1.88;99.65
64599;SHT31;51008;51.504;11.548;2023-01-26T08:09:41;-1.84;99.55
64599;SHT31;51008;51.504;11.548;2023-01-26T08:14:42;-1.80;99.24
64599;SHT31;51008;51.504;11.548;2023-01-26T08:19:44;-1.80;99.38
64599;SHT31;51008;51.504;11.548;2023-01-26T08:24:45;-1.80;99.51
64599;SHT31;51008;51.504;11.548;2023-01-26T08:29:46;-1.85;99.97
64599;SHT31;51008;51.504;11.548;2023-01-26T08:34:47;-1.90;99.99
64599;SHT31;51008;51.504;11.548;2023-01-26T08:39:48;-1.90;99.99
64599;SHT31;51008;51.504;11.548;2023-01-26T08:44:49;-1.87;99.99
64599;SHT31;51008;51.504;11.548;2023-01-26T08:49:50;-1.81;99.50
64599;SHT31;51008;51.504;11.548;2023-01-26T08:54:51;-1.81;99.57
64599;SHT31;51008;51.504;11.548;2023-01-26T08:59:52;-1.84;99.25
64599;SHT31;51008;51.504;11.548;2023-01-26T09:04:53;-1.82;99.44
64599;SHT31;51008;51.504;11.548;2023-01-26T09:09:54;-1.82;99.53
64599;SHT31;51008;51.504;11.548;2023-01-26T09:14:55;-1.97;99.72
64599;SHT31;51008;51.504;11.548;2023-01-26T09:19:56;-1.97;99.57
64599;SHT31;51008;51.504;11.548;2023-01-26T09:24:57;-1.97;99.70
64599;SHT31;51008;51.504;11.548;2023-01-26T09:29:58;-1.97;99.64
64599;SHT31;51008;51.504;11.548;2023-01-26T09:34:59;-1.95;99.48
64599;SHT31;51008;51.504;11.548;2023-01-26T09:40:00;-1.98;99.31
64599;SHT31;51008;51.504;11.548;2023-01-26T09:45:16;-2.06;99.03
64599;SHT31;51008;51.504;11.548;2023-01-26T09:50:20;-2.01;99.21
64599;SHT31;51008;51.504;11.548;2023-01-26T09:55:22;-1.92;99.47
64599;SHT31;51008;51.504;11.548;2023-01-26T10:00:29;-1.87;99.57
64599;SHT31;51008;51.504;11.548;2023-01-26T10:11:21;-1.71;98.81
64599;SHT31;51008;51.504;11.548;2023-01-26T10:16:25;-1.71;98.59
64599;SHT31;51008;51.504;11.548;2023-01-26T10:21:32;-1.82;98.39
64599;SHT31;51008;51.504;11.548;2023-01-26T10:26:36;-1.92;98.76
64599;SHT31;51008;51.504;11.548;2023-01-26T10:31:37;-1.94;98.58
64599;SHT31;51008;51.504;11.548;2023-01-26T10:36:40;-1.95;98.20
64599;SHT31;51008;51.504;11.548;2023-01-26T10:41:59;-1.92;98.00
64599;SHT31;51008;51.504;11.548;2023-01-26T10:47:18;-1.90;97.60
64599;SHT31;51008;51.504;11.548;2023-01-26T10:52:21;-1.90;97.73
64599;SHT31;51008;51.504;11.548;2023-01-26T10:57:27;-1.81;97.65
64599;SHT31;51008;51.504;11.548;2023-01-26T11:02:30;-1.80;96.89
64599;SHT31;51008;51.504;11.548;2023-01-26T11:07:36;-1.70;96.16
64599;SHT31;51008;51.504;11.548;2023-01-26T11:12:37;-1.68;95.17
64599;SHT31;51008;51.504;11.548;2023-01-26T11:18:01;-1.57;95.20
64599;SHT31;51008;51.504;11.548;2023-01-26T11:33:34;-1.42;94.67
64599;SHT31;51008;51.504;11.548;2023-01-26T11:39:11;-1.52;94.57
64599;SHT31;51008;51.504;11.548;2023-01-26T11:50:05;-1.56;93.75
64599;SHT31;51008;51.504;11.548;2023-01-26T11:55:20;-1.43;93.90
64599;SHT31;51008;51.504;11.548;2023-01-26T12:01:02;-1.42;93.06
64599;SHT31;51008;51.504;11.548;2023-01-26T12:06:07;-1.34;93.30
64599;SHT31;51008;51.504;11.548;2023-01-26T12:11:18;-1.22;93.14
64599;SHT31;51008;51.504;11.548;2023-01-26T12:16:45;-1.15;92.50
64599;SHT31;51008;51.504;11.548;2023-01-26T12:21:53;-1.09;92.28
64599;SHT31;51008;51.504;11.548;2023-01-26T12:26:54;-1.16;92.12
64599;SHT31;51008;51.504;11.548;2023-01-26T12:32:11;-1.18;92.08
64599;SHT31;51008;51.504;11.548;2023-01-26T12:43:01;-1.08;92.43
64599;SHT31;51008;51.504;11.548;2023-01-26T12:48:15;-1.05;92.42
64599;SHT31;51008;51.504;11.548;2023-01-26T12:58:36;-1.24;93.28
64599;SHT31;51008;51.504;11.548;2023-01-26T13:04:08;-1.29;93.86
64599;SHT31;51008;51.504;11.548;2023-01-26T13:24:41;-1.45;94.84
64599;SHT31;51008;51.504;11.548;2023-01-26T13:30:01;-1.40;95.11
64599;SHT31;51008;51.504;11.548;2023-01-26T13:35:08;-1.32;94.92
64599;SHT31;51008;51.504;11.548;2023-01-26T13:40:19;-1.31;95.14
64599;SHT31;51008;51.504;11.548;2023-01-26T13:50:39;-1.25;94.96
64599;SHT31;51008;51.504;11.548;2023-01-26T13:55:40;-1.18;95.14
64599;SHT31;51008;51.504;11.548;2023-01-26T14:00:41;-1.19;94.76
64599;SHT31;51008;51.504;11.548;2023-01-26T14:05:43;-1.25;95.32
64599;SHT31;51008;51.504;11.548;2023-01-26T14:10:51;-1.19;95.15
64599;SHT31;51008;51.504;11.548;2023-01-26T14:15:57;-1.15;94.62
64599;SHT31;51008;51.504;11.548;2023-01-26T14:21:20;-1.15;94.56
64599;SHT31;51008;51.504;11.548;2023-01-26T14:26:29;-1.15;94.58
64599;SHT31;51008;51.504;11.548;2023-01-26T14:31:30;-1.18;94.35
64599;SHT31;51008;51.504;11.548;2023-01-26T14:36:31;-1.19;94.74
64599;SHT31;51008;51.504;11.548;2023-01-26T14:41:33;-1.18;94.46
64599;SHT31;51008;51.504;11.548;2023-01-26T14:46:55;-1.19;94.61
64599;SHT31;51008;51.504;11.548;2023-01-26T14:51:58;-1.13;94.57
64599;SHT31;51008;51.504;11.548;2023-01-26T14:56:59;-1.07;94.71
64599;SHT31;51008;51.504;11.548;2023-01-26T15:02:03;-0.97;94.59
64599;SHT31;51008;51.504;11.548;2023-01-26T15:07:30;-0.93;94.45
64599;SHT31;51008;51.504;11.548;2023-01-26T15:12:33;-0.91;94.64
64599;SHT31;51008;51.504;11.548;2023-01-26T15:17:41;-0.93;94.70
64599;SHT31;51008;51.504;11.548;2023-01-26T15:22:50;-0.98;94.63
64599;SHT31;51008;51.504;11.548;2023-01-26T15:27:54;-0.98;94.77
64599;SHT31;51008;51.504;11.548;2023-01-26T15:32:56;-1.05;94.92
64599;SHT31;51008;51.504;11.548;2023-01-26T15:38:12;-1.07;95.00
64599;SHT31;51008;51.504;11.548;2023-01-26T15:43:17;-1.02;95.12
64599;SHT31;51008;51.504;11.548;2023-01-26T15:48:20;-1.04;95.30
64599;SHT31;51008;51.504;11.548;2023-01-26T15:53:21;-1.09;95.24
64599;SHT31;51008;51.504;11.548;2023-01-26T15:58:23;-1.07;95.49
64599;SHT31;51008;51.504;11.548;2023-01-26T16:03:24;-1.08;95.28
64599;SHT31;51008;51.504;11.548;2023-01-26T16:08:25;-1.09;95.62
64599;SHT31;51008;51.504;11.548;2023-01-26T16:13:26;-1.11;95.72
64599;SHT31;51008;51.504;11.548;2023-01-26T16:18:27;-1.11;95.89
64599;SHT31;51008;51.504;11.548;2023-01-26T16:23:28;-1.11;96.27
64599;SHT31;51008;51.504;11.548;2023-01-26T16:28:29;-1.08;96.56
64599;SHT31;51008;51.504;11.548;2023-01-26T16:33:30;-1.13;96.90
64599;SHT31;51008;51.504;11.548;2023-01-26T16:38:31;-1.12;97.37
64599;SHT31;51008;51.504;11.548;2023-01-26T16:43:32;-1.08;97.48
64599;SHT31;51008;51.504;11.548;2023-01-26T16:48:33;-1.08;97.89
64599;SHT31;51008;51.504;11.548;2023-01-26T16:53:34;-1.09;97.78
64599;SHT31;51008;51.504;11.548;2023-01-26T16:58:35;-1.08;97.84
64599;SHT31;51008;51.504;11.548;2023-01-26T17:03:35;-1.01;98.09
64599;SHT31;51008;51.504;11.548;2023-01-26T17:08:37;-1.02;97.74
64599;SHT31;51008;51.504;11.548;2023-01-26T17:13:38;-1.07;97.66
64599;SHT31;51008;51.504;11.548;2023-01-26T17:18:39;-1.07;97.99
64599;SHT31;51008;51.504;11.548;2023-01-26T17:23:40;-1.02;97.86
64599;SHT31;51008;51.504;11.548;2023-01-26T17:28:42;-1.04;98.17
64599;SHT31;51008;51.504;11.548;2023-01-26T17:33:45;-0.98;98.30
64599;SHT31;51008;51.504;11.548;2023-01-26T17:38:47;-0.98;98.29
64599;SHT31;51008;51.504;11.548;2023-01-26T17:43:48;-0.98;98.40
64599;SHT31;51008;51.504;11.548;2023-01-26T17:48:49;-0.98;98.61
64599;SHT31;51008;51.504;11.548;2023-01-26T17:53:50;-1.00;98.73
64599;SHT31;51008;51.504;11.548;2023-01-26T17:58:52;-0.94;98.93
64599;SHT31;51008;51.504;11.548;2023-01-26T18:03:54;-0.93;98.91
64599;SHT31;51008;51.504;11.548;2023-01-26T18:08:55;-0.95;99.23
64599;SHT31;51008;51.504;11.548;2023-01-26T18:13:56;-0.98;99.53
64599;SHT31;51008;51.504;11.548;2023-01-26T18:18:58;-0.93;99.99
64599;SHT31;51008;51.504;11.548;2023-01-26T18:24:01;-0.88;99.99
64599;SHT31;51008;51.504;11.548;2023-01-26T18:29:03;-0.81;99.99
64599;SHT31;51008;51.504;11.548;2023-01-26T18:34:05;-0.74;99.99
64599;SHT31;51008;51.504;11.548;2023-01-26T18:39:10;-0.74;99.99
64599;SHT31;51008;51.504;11.548;2023-01-26T18:44:11;-0.72;99.99
64599;SHT31;51008;51.504;11.548;2023-01-26T18:49:12;-0.69;99.99
64599;SHT31;51008;51.504;11.548;2023-01-26T18:54:14;-0.72;99.99
64599;SHT31;51008;51.504;11.548;2023-01-26T18:59:16;-0.76;99.99
64599;SHT31;51008;51.504;11.548;2023-01-26T19:04:17;-0.77;99.99
64599;SHT31;51008;51.504;11.548;2023-01-26T19:09:18;-0.79;99.99
64599;SHT31;51008;51.504;11.548;2023-01-26T19:14:19;-0.76;99.99
64599;SHT31;51008;51.504;11.548;2023-01-26T19:19:20;-0.73;99.99
64599;SHT31;51008;51.504;11.548;2023-01-26T19:24:21;-0.72;99.99
64599;SHT31;51008;51.504;11.548;2023-01-26T19:29:22;-0.69;99.99
64599;SHT31;51008;51.504;11.548;2023-01-26T19:34:23;-0.69;99.99
64599;SHT31;51008;51.504;11.548;2023-01-26T19:39:24;-0.62;99.99
64599;SHT31;51008;51.504;11.548;2023-01-26T19:44:25;-0.60;99.99
64599;SHT31;51008;51.504;11.548;2023-01-26T19:49:26;-0.62;99.99
64599;SHT31;51008;51.504;11.548;2023-01-26T19:54:27;-0.62;99.99
64599;SHT31;51008;51.504;11.548;2023-01-26T19:59:28;-0.65;99.99
64599;SHT31;51008;51.504;11.548;2023-01-26T20:04:29;-0.65;99.99
64599;SHT31;51008;51.504;11.548;2023-01-26T20:09:33;-0.63;99.99
64599;SHT31;51008;51.504;11.548;2023-01-26T20:14:34;-0.69;99.99
64599;SHT31;51008;51.504;11.548;2023-01-26T20:19:35;-0.69;99.99
64599;SHT31;51008;51.504;11.548;2023-01-26T20:24:37;-0.70;99.99
64599;SHT31;51008;51.504;11.548;2023-01-26T20:29:38;-0.70;99.99
64599;SHT31;51008;51.504;11.548;2023-01-26T20:34:40;-0.70;99.99
64599;SHT31;51008;51.504;11.548;2023-01-26T20:39:41;-0.63;99.99
64599;SHT31;51008;51.504;11.548;2023-01-26T20:44:42;-0.66;99.99
64599;SHT31;51008;51.504;11.548;2023-01-26T20:49:42;-0.65;99.99
64599;SHT31;51008;51.504;11.548;2023-01-26T20:54:44;-0.63;99.99
64599;SHT31;51008;51.504;11.548;2023-01-26T20:59:45;-0.59;99.99
64599;SHT31;51008;51.504;11.548;2023-01-26T21:04:46;-0.62;99.99
64599;SHT31;51008;51.504;11.548;2023-01-26T21:09:47;-0.62;99.99
64599;SHT31;51008;51.504;11.548;2023-01-26T21:14:48;-0.62;99.99
64599;SHT31;51008;51.504;11.548;2023-01-26T21:19:49;-0.60;99.99
64599;SHT31;51008;51.504;11.548;2023-01-26T21:24:50;-0.55;99.99
64599;SHT31;51008;51.504;11.548;2023-01-26T21:29:51;-0.48;99.99
64599;SHT31;51008;51.504;11.548;2023-01-26T21:34:52;-0.48;99.99
64599;SHT31;51008;51.504;11.548;2023-01-26T21:39:53;-0.48;99.99
64599;SHT31;51008;51.504;11.548;2023-01-26T21:44:54;-0.43;99.99
64599;SHT31;51008;51.504;11.548;2023-01-26T21:49:55;-0.46;99.99
64599;SHT31;51008;51.504;11.548;2023-01-26T21:54:56;-0.45;99.99
64599;SHT31;51008;51.504;11.548;2023-01-26T21:59:57;-0.50;99.99
64599;SHT31;51008;51.504;11.548;2023-01-26T22:04:58;-0.49;99.99
64599;SHT31;51008;51.504;11.548;2023-01-26T22:09:59;-0.52;99.99
64599;SHT31;51008;51.504;11.548;2023-01-26T22:15:00;-0.52;99.99
64599;SHT31;51008;51.504;11.548;2023-01-26T22:20:01;-0.52;99.99
64599;SHT31;51008;51.504;11.548;2023-01-26T22:25:02;-0.49;99.99
64599;SHT31;51008;51.504;11.548;2023-01-26T22:30:03;-0.48;99.99
64599;SHT31;51008;51.504;11.548;2023-01-26T22:35:05;-0.50;99.99
64599;SHT31;51008;51.504;11.548;2023-01-26T22:40:06;-0.49;99.99
64599;SHT31;51008;51.504;11.548;2023-01-26T22:45:08;-0.48;99.99
64599;SHT31;51008;51.504;11.548;2023-01-26T22:50:10;-0.48;99.99
64599;SHT31;51008;51.504;11.548;2023-01-26T22:55:11;-0.45;99.99
64599;SHT31;51008;51.504;11.548;2023-01-26T23:00:12;-0.45;99.99
64599;SHT31;51008;51.504;11.548;2023-01-26T23:05:13;-0.46;99.99
64599;SHT31;51008;51.504;11.548;2023-01-26T23:10:14;-0.45;99.99
64599;SHT31;51008;51.504;11.548;2023-01-26T23:15:15;-0.48;99.99
64599;SHT31;51008;51.504;11.548;2023-01-26T23:20:18;-0.46;99.99
64599;SHT31;51008;51.504;11.548;2023-01-26T23:25:19;-0.46;99.99
64599;SHT31;51008;51.504;11.548;2023-01-26T23:30:20;-0.46;99.99
64599;SHT31;51008;51.504;11.548;2023-01-26T23:35:24;-0.45;99.99
64599;SHT31;51008;51.504;11.548;2023-01-26T23:40:25;-0.39;99.99
64599;SHT31;51008;51.504;11.548;2023-01-26T23:45:26;-0.40;99.99
64599;SHT31;51008;51.504;11.548;2023-01-26T23:50:28;-0.40;99.99
64599;SHT31;51008;51.504;11.548;2023-01-26T23:55:29;-0.42;99.99
